sensor_id;sensor_type;location;lat;lon;timestamp;P1;durP1;ratioP1;P2;durP2;ratioP2
52480;SDS011;38393;52.404;13.532;2022-07-22T00:00:13;12.90;;;10.52;;
52480;SDS011;38393;52.404;13.532;2022-07-22T00:02:39;12.13;;;9.85;;
52480;SDS011;38393;52.404;13.532;2022-07-22T00:05:06;12.32;;;10.30;;
52480;SDS011;38393;52.404;13.532;2022-07-22T00:07:32;13.65;;;9.70;;
52480;SDS011;38393;52.404;13.532;2022-07-22T00:09:58;17.17;;;10.60;;
52480;SDS011;38393;52.404;13.532;2022-07-22T00:12:24;13.38;;;10.27;;
52480;SDS011;38393;52.404;13.532;2022-07-22T00:14:50;14.02;;;10.35;;
52480;SDS011;38393;52.404;13.532;2022-07-22T00:17:16;11.70;;;9.50;;
52480;SDS011;38393;52.404;13.532;2022-07-22T00:19:42;12.23;;;9.70;;
52480;SDS011;38393;52.404;13.532;2022-07-22T00:22:08;12.40;;;9.52;;
52480;SDS011;38393;52.404;13.532;2022-07-22T00:24:34;12.02;;;9.90;;
52480;SDS011;38393;52.404;13.532;2022-07-22T00:27:00;12.88;;;9.32;;
52480;SDS011;38393;52.404;13.532;2022-07-22T00:29:26;15.32;;;10.15;;
52480;SDS011;38393;52.404;13.532;2022-07-22T00:31:52;14.20;;;10.40;;
52480;SDS011;38393;52.404;13.532;2022-07-22T00:34:18;12.95;;;10.02;;
52480;SDS011;38393;52.404;13.532;2022-07-22T00:36:43;12.18;;;9.93;;
52480;SDS011;38393;52.404;13.532;2022-07-22T00:39:09;13.38;;;9.73;;
52480;SDS011;38393;52.404;13.532;2022-07-22T00:41:35;13.93;;;10.35;;
52480;SDS011;38393;52.404;13.532;2022-07-22T00:44:02;13.80;;;10.20;;
52480;SDS011;38393;52.404;13.532;2022-07-22T00:46:29;14.55;;;9.95;;
52480;SDS011;38393;52.404;13.532;2022-07-22T00:48:55;12.57;;;10.35;;
52480;SDS011;38393;52.404;13.532;2022-07-22T00:51:22;13.32;;;9.77;;
52480;SDS011;38393;52.404;13.532;2022-07-22T00:53:48;14.82;;;10.82;;
52480;SDS011;38393;52.404;13.532;2022-07-22T00:56:15;12.20;;;9.70;;
52480;SDS011;38393;52.404;13.532;2022-07-22T00:58:41;12.30;;;9.55;;
52480;SDS011;38393;52.404;13.532;2022-07-22T01:01:07;12.85;;;9.32;;
52480;SDS011;38393;52.404;13.532;2022-07-22T01:03:34;13.02;;;9.27;;
52480;SDS011;38393;52.404;13.532;2022-07-22T01:06:00;11.45;;;8.90;;
52480;SDS011;38393;52.404;13.532;2022-07-22T01:08:26;11.57;;;9.30;;
52480;SDS011;38393;52.404;13.532;2022-07-22T01:10:52;14.00;;;9.50;;
52480;SDS011;38393;52.404;13.532;2022-07-22T01:13:18;13.07;;;9.50;;
52480;SDS011;38393;52.404;13.532;2022-07-22T01:15:44;13.48;;;8.93;;
52480;SDS011;38393;52.404;13.532;2022-07-22T01:18:10;10.43;;;8.40;;
52480;SDS011;38393;52.404;13.532;2022-07-22T01:20:36;10.15;;;8.55;;
52480;SDS011;38393;52.404;13.532;2022-07-22T01:23:02;10.82;;;8.23;;
52480;SDS011;38393;52.404;13.532;2022-07-22T01:25:28;11.38;;;8.10;;
52480;SDS011;38393;52.404;13.532;2022-07-22T01:27:54;10.77;;;7.68;;
52480;SDS011;38393;52.404;13.532;2022-07-22T01:30:20;12.02;;;7.90;;
52480;SDS011;38393;52.404;13.532;2022-07-22T01:32:46;8.57;;;7.47;;
52480;SDS011;38393;52.404;13.532;2022-07-22T01:35:12;9.65;;;7.50;;
52480;SDS011;38393;52.404;13.532;2022-07-22T01:37:37;10.75;;;7.43;;
52480;SDS011;38393;52.404;13.532;2022-07-22T01:40:04;9.43;;;7.50;;
52480;SDS011;38393;52.404;13.532;2022-07-22T01:42:30;9.45;;;7.43;;
52480;SDS011;38393;52.404;13.532;2022-07-22T01:44:56;8.60;;;7.03;;
52480;SDS011;38393;52.404;13.532;2022-07-22T01:47:21;9.52;;;6.90;;
52480;SDS011;38393;52.404;13.532;2022-07-22T01:49:47;9.63;;;7.10;;
52480;SDS011;38393;52.404;13.532;2022-07-22T01:52:13;8.65;;;6.30;;
52480;SDS011;38393;52.404;13.532;2022-07-22T01:54:39;8.68;;;6.40;;
52480;SDS011;38393;52.404;13.532;2022-07-22T01:57:05;7.20;;;6.00;;
52480;SDS011;38393;52.404;13.532;2022-07-22T01:59:31;8.77;;;6.22;;
52480;SDS011;38393;52.404;13.532;2022-07-22T02:01:57;10.05;;;6.30;;
52480;SDS011;38393;52.404;13.532;2022-07-22T02:04:23;9.40;;;6.22;;
52480;SDS011;38393;52.404;13.532;2022-07-22T02:06:49;8.20;;;6.20;;
52480;SDS011;38393;52.404;13.532;2022-07-22T02:09:15;7.15;;;6.00;;
52480;SDS011;38393;52.404;13.532;2022-07-22T02:11:41;9.85;;;6.68;;
52480;SDS011;38393;52.404;13.532;2022-07-22T02:14:07;9.55;;;6.22;;
52480;SDS011;38393;52.404;13.532;2022-07-22T02:16:33;8.05;;;6.60;;
52480;SDS011;38393;52.404;13.532;2022-07-22T02:18:59;8.07;;;6.63;;
52480;SDS011;38393;52.404;13.532;2022-07-22T02:21:25;7.40;;;6.18;;
52480;SDS011;38393;52.404;13.532;2022-07-22T02:23:51;8.23;;;6.57;;
52480;SDS011;38393;52.404;13.532;2022-07-22T02:26:17;10.20;;;6.25;;
52480;SDS011;38393;52.404;13.532;2022-07-22T02:28:46;10.38;;;6.93;;
52480;SDS011;38393;52.404;13.532;2022-07-22T02:31:12;12.23;;;7.15;;
52480;SDS011;38393;52.404;13.532;2022-07-22T02:33:38;8.52;;;6.53;;
52480;SDS011;38393;52.404;13.532;2022-07-22T02:36:04;9.43;;;6.70;;
52480;SDS011;38393;52.404;13.532;2022-07-22T02:38:29;12.02;;;7.00;;
52480;SDS011;38393;52.404;13.532;2022-07-22T02:40:55;9.32;;;7.18;;
52480;SDS011;38393;52.404;13.532;2022-07-22T02:43:21;10.68;;;7.00;;
52480;SDS011;38393;52.404;13.532;2022-07-22T02:45:47;10.57;;;7.57;;
52480;SDS011;38393;52.404;13.532;2022-07-22T02:48:13;11.18;;;8.35;;
52480;SDS011;38393;52.404;13.532;2022-07-22T02:50:44;10.00;;;8.02;;
52480;SDS011;38393;52.404;13.532;2022-07-22T02:53:11;10.40;;;8.25;;
52480;SDS011;38393;52.404;13.532;2022-07-22T02:55:37;12.55;;;8.65;;
52480;SDS011;38393;52.404;13.532;2022-07-22T02:58:06;10.38;;;8.25;;
52480;SDS011;38393;52.404;13.532;2022-07-22T03:00:32;12.43;;;8.40;;
52480;SDS011;38393;52.404;13.532;2022-07-22T03:02:58;12.13;;;8.85;;
52480;SDS011;38393;52.404;13.532;2022-07-22T03:05:24;12.30;;;9.13;;
52480;SDS011;38393;52.404;13.532;2022-07-22T03:07:50;15.10;;;9.63;;
52480;SDS011;38393;52.404;13.532;2022-07-22T03:10:16;11.20;;;9.00;;
52480;SDS011;38393;52.404;13.532;2022-07-22T03:12:42;12.88;;;9.10;;
52480;SDS011;38393;52.404;13.532;2022-07-22T03:15:08;13.02;;;9.55;;
52480;SDS011;38393;52.404;13.532;2022-07-22T03:17:34;18.13;;;10.20;;
52480;SDS011;38393;52.404;13.532;2022-07-22T03:20:02;13.88;;;10.23;;
52480;SDS011;38393;52.404;13.532;2022-07-22T03:22:28;14.23;;;10.15;;
52480;SDS011;38393;52.404;13.532;2022-07-22T03:24:54;16.90;;;10.63;;
52480;SDS011;38393;52.404;13.532;2022-07-22T03:27:20;15.55;;;11.02;;
52480;SDS011;38393;52.404;13.532;2022-07-22T03:29:46;13.65;;;10.20;;
52480;SDS011;38393;52.404;13.532;2022-07-22T03:32:12;15.30;;;10.25;;
52480;SDS011;38393;52.404;13.532;2022-07-22T03:34:38;18.25;;;11.02;;
52480;SDS011;38393;52.404;13.532;2022-07-22T03:37:04;14.77;;;10.57;;
52480;SDS011;38393;52.404;13.532;2022-07-22T03:39:30;13.93;;;10.48;;
52480;SDS011;38393;52.404;13.532;2022-07-22T03:41:56;15.18;;;10.35;;
52480;SDS011;38393;52.404;13.532;2022-07-22T03:44:22;15.30;;;10.35;;
52480;SDS011;38393;52.404;13.532;2022-07-22T03:46:48;15.38;;;10.77;;
52480;SDS011;38393;52.404;13.532;2022-07-22T03:49:13;14.30;;;10.88;;
52480;SDS011;38393;52.404;13.532;2022-07-22T03:51:39;14.45;;;10.52;;
52480;SDS011;38393;52.404;13.532;2022-07-22T03:54:05;15.88;;;10.73;;
52480;SDS011;38393;52.404;13.532;2022-07-22T03:56:31;15.55;;;10.70;;
52480;SDS011;38393;52.404;13.532;2022-07-22T03:58:57;15.43;;;10.82;;
52480;SDS011;38393;52.404;13.532;2022-07-22T04:01:23;16.65;;;10.68;;
52480;SDS011;38393;52.404;13.532;2022-07-22T04:03:49;15.63;;;11.23;;
52480;SDS011;38393;52.404;13.532;2022-07-22T04:06:15;16.58;;;11.82;;
52480;SDS011;38393;52.404;13.532;2022-07-22T04:08:41;18.23;;;12.45;;
52480;SDS011;38393;52.404;13.532;2022-07-22T04:11:07;17.85;;;11.88;;
52480;SDS011;38393;52.404;13.532;2022-07-22T04:13:33;17.08;;;11.23;;
52480;SDS011;38393;52.404;13.532;2022-07-22T04:15:59;16.45;;;11.75;;
52480;SDS011;38393;52.404;13.532;2022-07-22T04:18:25;16.60;;;12.20;;
52480;SDS011;38393;52.404;13.532;2022-07-22T04:20:51;17.25;;;12.43;;
52480;SDS011;38393;52.404;13.532;2022-07-22T04:23:17;16.63;;;11.80;;
52480;SDS011;38393;52.404;13.532;2022-07-22T04:25:43;18.17;;;12.13;;
52480;SDS011;38393;52.404;13.532;2022-07-22T04:28:09;15.93;;;11.38;;
52480;SDS011;38393;52.404;13.532;2022-07-22T04:30:35;16.08;;;11.38;;
52480;SDS011;38393;52.404;13.532;2022-07-22T04:33:01;17.38;;;11.57;;
52480;SDS011;38393;52.404;13.532;2022-07-22T04:35:27;15.18;;;10.93;;
52480;SDS011;38393;52.404;13.532;2022-07-22T04:37:53;17.73;;;10.93;;
52480;SDS011;38393;52.404;13.532;2022-07-22T04:40:19;15.60;;;10.88;;
52480;SDS011;38393;52.404;13.532;2022-07-22T04:42:45;14.63;;;10.73;;
52480;SDS011;38393;52.404;13.532;2022-07-22T04:45:11;16.88;;;10.80;;
52480;SDS011;38393;52.404;13.532;2022-07-22T04:47:37;14.30;;;10.57;;
52480;SDS011;38393;52.404;13.532;2022-07-22T04:50:03;15.85;;;11.35;;
52480;SDS011;38393;52.404;13.532;2022-07-22T04:52:29;15.18;;;11.30;;
52480;SDS011;38393;52.404;13.532;2022-07-22T04:54:55;17.13;;;11.10;;
52480;SDS011;38393;52.404;13.532;2022-07-22T04:57:23;14.70;;;10.70;;
52480;SDS011;38393;52.404;13.532;2022-07-22T04:59:49;17.08;;;11.52;;
52480;SDS011;38393;52.404;13.532;2022-07-22T05:02:15;13.32;;;10.68;;
52480;SDS011;38393;52.404;13.532;2022-07-22T05:04:41;16.60;;;12.27;;
52480;SDS011;38393;52.404;13.532;2022-07-22T05:07:07;16.75;;;12.02;;
52480;SDS011;38393;52.404;13.532;2022-07-22T05:09:33;17.02;;;12.80;;
52480;SDS011;38393;52.404;13.532;2022-07-22T05:11:59;18.58;;;13.05;;
52480;SDS011;38393;52.404;13.532;2022-07-22T05:14:25;17.95;;;12.68;;
52480;SDS011;38393;52.404;13.532;2022-07-22T05:16:51;16.27;;;12.40;;
52480;SDS011;38393;52.404;13.532;2022-07-22T05:19:17;19.40;;;13.23;;
52480;SDS011;38393;52.404;13.532;2022-07-22T05:21:43;18.02;;;13.45;;
52480;SDS011;38393;52.404;13.532;2022-07-22T05:24:08;18.10;;;13.63;;
52480;SDS011;38393;52.404;13.532;2022-07-22T05:26:34;18.75;;;13.60;;
52480;SDS011;38393;52.404;13.532;2022-07-22T05:29:00;18.40;;;13.70;;
52480;SDS011;38393;52.404;13.532;2022-07-22T05:31:26;18.27;;;13.93;;
52480;SDS011;38393;52.404;13.532;2022-07-22T05:33:52;20.00;;;14.05;;
52480;SDS011;38393;52.404;13.532;2022-07-22T05:36:18;19.42;;;13.50;;
52480;SDS011;38393;52.404;13.532;2022-07-22T05:38:44;19.45;;;13.18;;
52480;SDS011;38393;52.404;13.532;2022-07-22T05:41:10;16.85;;;12.77;;
52480;SDS011;38393;52.404;13.532;2022-07-22T05:43:36;17.38;;;12.85;;
52480;SDS011;38393;52.404;13.532;2022-07-22T05:46:02;18.60;;;13.55;;
52480;SDS011;38393;52.404;13.532;2022-07-22T05:48:28;21.75;;;13.77;;
52480;SDS011;38393;52.404;13.532;2022-07-22T05:50:54;24.55;;;13.98;;
52480;SDS011;38393;52.404;13.532;2022-07-22T05:53:20;18.80;;;13.15;;
52480;SDS011;38393;52.404;13.532;2022-07-22T05:55:46;17.20;;;12.82;;
52480;SDS011;38393;52.404;13.532;2022-07-22T05:58:12;16.73;;;13.20;;
52480;SDS011;38393;52.404;13.532;2022-07-22T06:00:38;17.85;;;13.23;;
52480;SDS011;38393;52.404;13.532;2022-07-22T06:03:04;18.70;;;12.23;;
52480;SDS011;38393;52.404;13.532;2022-07-22T06:05:30;17.40;;;12.93;;
52480;SDS011;38393;52.404;13.532;2022-07-22T06:07:56;19.77;;;13.77;;
52480;SDS011;38393;52.404;13.532;2022-07-22T06:10:22;20.17;;;13.00;;
52480;SDS011;38393;52.404;13.532;2022-07-22T06:12:48;18.58;;;12.93;;
52480;SDS011;38393;52.404;13.532;2022-07-22T06:15:14;20.58;;;11.95;;
52480;SDS011;38393;52.404;13.532;2022-07-22T06:17:40;19.85;;;12.77;;
52480;SDS011;38393;52.404;13.532;2022-07-22T06:20:06;17.10;;;12.20;;
52480;SDS011;38393;52.404;13.532;2022-07-22T06:22:32;20.58;;;13.02;;
52480;SDS011;38393;52.404;13.532;2022-07-22T06:24:58;17.52;;;12.40;;
52480;SDS011;38393;52.404;13.532;2022-07-22T06:27:24;16.90;;;12.18;;
52480;SDS011;38393;52.404;13.532;2022-07-22T06:29:50;18.23;;;12.23;;
52480;SDS011;38393;52.404;13.532;2022-07-22T06:32:16;18.80;;;11.45;;
52480;SDS011;38393;52.404;13.532;2022-07-22T06:34:41;17.42;;;12.57;;
52480;SDS011;38393;52.404;13.532;2022-07-22T06:37:07;16.35;;;12.40;;
52480;SDS011;38393;52.404;13.532;2022-07-22T06:39:33;17.08;;;11.88;;
52480;SDS011;38393;52.404;13.532;2022-07-22T06:41:59;18.27;;;12.68;;
52480;SDS011;38393;52.404;13.532;2022-07-22T06:44:25;15.55;;;12.25;;
52480;SDS011;38393;52.404;13.532;2022-07-22T06:46:51;22.42;;;11.98;;
52480;SDS011;38393;52.404;13.532;2022-07-22T06:49:17;15.93;;;12.68;;
52480;SDS011;38393;52.404;13.532;2022-07-22T06:51:43;14.30;;;11.60;;
52480;SDS011;38393;52.404;13.532;2022-07-22T06:54:09;15.32;;;11.50;;
52480;SDS011;38393;52.404;13.532;2022-07-22T06:56:35;16.95;;;11.95;;
52480;SDS011;38393;52.404;13.532;2022-07-22T06:59:01;15.88;;;10.98;;
52480;SDS011;38393;52.404;13.532;2022-07-22T07:01:27;15.20;;;11.40;;
52480;SDS011;38393;52.404;13.532;2022-07-22T07:03:53;16.77;;;10.77;;
52480;SDS011;38393;52.404;13.532;2022-07-22T07:06:19;17.00;;;10.23;;
52480;SDS011;38393;52.404;13.532;2022-07-22T07:08:45;12.25;;;10.27;;
52480;SDS011;38393;52.404;13.532;2022-07-22T07:11:11;13.75;;;10.75;;
52480;SDS011;38393;52.404;13.532;2022-07-22T07:13:37;12.93;;;9.93;;
52480;SDS011;38393;52.404;13.532;2022-07-22T07:16:03;11.80;;;10.15;;
52480;SDS011;38393;52.404;13.532;2022-07-22T07:18:29;12.25;;;9.80;;
52480;SDS011;38393;52.404;13.532;2022-07-22T07:20:55;12.00;;;9.68;;
52480;SDS011;38393;52.404;13.532;2022-07-22T07:23:21;13.70;;;9.38;;
52480;SDS011;38393;52.404;13.532;2022-07-22T07:25:47;14.57;;;9.52;;
52480;SDS011;38393;52.404;13.532;2022-07-22T07:28:13;15.40;;;9.30;;
52480;SDS011;38393;52.404;13.532;2022-07-22T07:30:39;11.55;;;9.48;;
52480;SDS011;38393;52.404;13.532;2022-07-22T07:33:05;14.48;;;9.48;;
52480;SDS011;38393;52.404;13.532;2022-07-22T07:35:31;12.27;;;9.52;;
52480;SDS011;38393;52.404;13.532;2022-07-22T07:37:57;11.73;;;9.05;;
52480;SDS011;38393;52.404;13.532;2022-07-22T07:40:23;12.82;;;8.88;;
52480;SDS011;38393;52.404;13.532;2022-07-22T07:42:48;10.93;;;9.30;;
52480;SDS011;38393;52.404;13.532;2022-07-22T07:45:14;14.25;;;9.18;;
52480;SDS011;38393;52.404;13.532;2022-07-22T07:47:40;10.25;;;8.82;;
52480;SDS011;38393;52.404;13.532;2022-07-22T07:50:06;12.52;;;9.57;;
52480;SDS011;38393;52.404;13.532;2022-07-22T07:52:36;10.18;;;8.23;;
52480;SDS011;38393;52.404;13.532;2022-07-22T07:55:03;10.88;;;8.90;;
52480;SDS011;38393;52.404;13.532;2022-07-22T07:57:29;11.70;;;8.60;;
52480;SDS011;38393;52.404;13.532;2022-07-22T07:59:55;10.38;;;8.27;;
52480;SDS011;38393;52.404;13.532;2022-07-22T08:02:20;8.15;;;7.32;;
52480;SDS011;38393;52.404;13.532;2022-07-22T08:04:46;9.23;;;7.50;;
52480;SDS011;38393;52.404;13.532;2022-07-22T08:07:13;11.82;;;7.75;;
52480;SDS011;38393;52.404;13.532;2022-07-22T08:09:39;13.85;;;8.43;;
52480;SDS011;38393;52.404;13.532;2022-07-22T08:12:06;9.00;;;7.25;;
52480;SDS011;38393;52.404;13.532;2022-07-22T08:14:32;8.80;;;7.47;;
52480;SDS011;38393;52.404;13.532;2022-07-22T08:16:58;8.50;;;7.05;;
52480;SDS011;38393;52.404;13.532;2022-07-22T08:19:24;7.75;;;6.57;;
52480;SDS011;38393;52.404;13.532;2022-07-22T08:21:50;8.80;;;6.78;;
52480;SDS011;38393;52.404;13.532;2022-07-22T08:24:16;10.32;;;6.93;;
52480;SDS011;38393;52.404;13.532;2022-07-22T08:26:42;10.52;;;6.97;;
52480;SDS011;38393;52.404;13.532;2022-07-22T08:29:08;9.35;;;6.63;;
52480;SDS011;38393;52.404;13.532;2022-07-22T08:31:35;9.63;;;6.88;;
52480;SDS011;38393;52.404;13.532;2022-07-22T08:34:02;9.40;;;6.78;;
52480;SDS011;38393;52.404;13.532;2022-07-22T08:36:28;7.35;;;6.30;;
52480;SDS011;38393;52.404;13.532;2022-07-22T08:38:54;6.53;;;5.65;;
52480;SDS011;38393;52.404;13.532;2022-07-22T08:41:21;7.60;;;5.93;;
52480;SDS011;38393;52.404;13.532;2022-07-22T08:43:47;10.15;;;5.72;;
52480;SDS011;38393;52.404;13.532;2022-07-22T08:46:13;9.02;;;5.90;;
52480;SDS011;38393;52.404;13.532;2022-07-22T08:48:39;7.43;;;5.65;;
52480;SDS011;38393;52.404;13.532;2022-07-22T08:51:06;6.63;;;5.85;;
52480;SDS011;38393;52.404;13.532;2022-07-22T08:53:32;8.63;;;5.53;;
52480;SDS011;38393;52.404;13.532;2022-07-22T08:55:58;8.75;;;5.50;;
52480;SDS011;38393;52.404;13.532;2022-07-22T08:58:24;9.27;;;5.43;;
52480;SDS011;38393;52.404;13.532;2022-07-22T09:01:10;7.68;;;5.55;;
52480;SDS011;38393;52.404;13.532;2022-07-22T09:03:43;8.00;;;5.25;;
52480;SDS011;38393;52.404;13.532;2022-07-22T09:06:10;7.13;;;5.28;;
52480;SDS011;38393;52.404;13.532;2022-07-22T09:11:21;8.05;;;5.45;;
52480;SDS011;38393;52.404;13.532;2022-07-22T09:13:48;11.45;;;5.13;;
52480;SDS011;38393;52.404;13.532;2022-07-22T09:16:14;5.13;;;4.63;;
52480;SDS011;38393;52.404;13.532;2022-07-22T09:18:50;6.95;;;4.78;;
52480;SDS011;38393;52.404;13.532;2022-07-22T09:21:16;6.22;;;4.78;;
52480;SDS011;38393;52.404;13.532;2022-07-22T09:23:42;4.35;;;3.70;;
52480;SDS011;38393;52.404;13.532;2022-07-22T09:26:09;5.97;;;4.35;;
52480;SDS011;38393;52.404;13.532;2022-07-22T09:28:55;8.80;;;4.57;;
52480;SDS011;38393;52.404;13.532;2022-07-22T09:31:25;7.07;;;4.57;;
52480;SDS011;38393;52.404;13.532;2022-07-22T09:33:51;5.07;;;4.57;;
52480;SDS011;38393;52.404;13.532;2022-07-22T09:36:19;5.20;;;4.43;;
52480;SDS011;38393;52.404;13.532;2022-07-22T09:38:45;6.65;;;4.38;;
52480;SDS011;38393;52.404;13.532;2022-07-22T09:41:10;6.75;;;4.43;;
52480;SDS011;38393;52.404;13.532;2022-07-22T09:43:38;5.75;;;4.82;;
52480;SDS011;38393;52.404;13.532;2022-07-22T09:46:04;5.78;;;4.43;;
52480;SDS011;38393;52.404;13.532;2022-07-22T09:48:30;5.22;;;4.70;;
52480;SDS011;38393;52.404;13.532;2022-07-22T09:50:57;4.63;;;4.13;;
52480;SDS011;38393;52.404;13.532;2022-07-22T09:53:24;4.93;;;4.30;;
52480;SDS011;38393;52.404;13.532;2022-07-22T09:55:51;5.20;;;3.95;;
52480;SDS011;38393;52.404;13.532;2022-07-22T09:58:17;6.30;;;4.03;;
52480;SDS011;38393;52.404;13.532;2022-07-22T10:00:43;5.00;;;4.25;;
52480;SDS011;38393;52.404;13.532;2022-07-22T10:03:15;7.07;;;4.90;;
52480;SDS011;38393;52.404;13.532;2022-07-22T10:05:42;9.50;;;5.10;;
52480;SDS011;38393;52.404;13.532;2022-07-22T10:08:08;6.72;;;5.57;;
52480;SDS011;38393;52.404;13.532;2022-07-22T10:10:35;6.28;;;5.43;;
52480;SDS011;38393;52.404;13.532;2022-07-22T10:13:02;7.55;;;5.10;;
52480;SDS011;38393;52.404;13.532;2022-07-22T10:15:29;7.13;;;4.90;;
52480;SDS011;38393;52.404;13.532;2022-07-22T10:17:56;5.88;;;4.68;;
52480;SDS011;38393;52.404;13.532;2022-07-22T10:20:24;6.32;;;5.25;;
52480;SDS011;38393;52.404;13.532;2022-07-22T10:22:52;5.75;;;4.88;;
52480;SDS011;38393;52.404;13.532;2022-07-22T10:25:18;5.65;;;4.82;;
52480;SDS011;38393;52.404;13.532;2022-07-22T10:27:48;6.43;;;4.30;;
52480;SDS011;38393;52.404;13.532;2022-07-22T10:30:16;4.60;;;4.13;;
52480;SDS011;38393;52.404;13.532;2022-07-22T10:32:42;5.30;;;3.90;;
52480;SDS011;38393;52.404;13.532;2022-07-22T10:40:22;4.80;;;3.88;;
52480;SDS011;38393;52.404;13.532;2022-07-22T10:48:03;5.38;;;3.97;;
52480;SDS011;38393;52.404;13.532;2022-07-22T10:55:35;4.20;;;3.72;;
52480;SDS011;38393;52.404;13.532;2022-07-22T11:00:46;3.60;;;3.25;;
52480;SDS011;38393;52.404;13.532;2022-07-22T11:03:13;3.60;;;3.00;;
52480;SDS011;38393;52.404;13.532;2022-07-22T11:05:49;12.05;;;3.90;;
52480;SDS011;38393;52.404;13.532;2022-07-22T11:08:14;7.90;;;3.53;;
52480;SDS011;38393;52.404;13.532;2022-07-22T11:10:46;3.78;;;3.28;;
52480;SDS011;38393;52.404;13.532;2022-07-22T11:13:12;5.40;;;3.50;;
52480;SDS011;38393;52.404;13.532;2022-07-22T11:15:38;3.30;;;3.00;;
52480;SDS011;38393;52.404;13.532;2022-07-22T11:18:04;3.75;;;3.45;;
52480;SDS011;38393;52.404;13.532;2022-07-22T11:20:30;3.83;;;3.40;;
52480;SDS011;38393;52.404;13.532;2022-07-22T11:22:56;5.10;;;3.33;;
52480;SDS011;38393;52.404;13.532;2022-07-22T11:25:22;3.67;;;3.03;;
52480;SDS011;38393;52.404;13.532;2022-07-22T11:27:51;3.38;;;3.08;;
52480;SDS011;38393;52.404;13.532;2022-07-22T11:30:17;3.65;;;3.10;;
52480;SDS011;38393;52.404;13.532;2022-07-22T11:32:43;3.55;;;2.70;;
52480;SDS011;38393;52.404;13.532;2022-07-22T11:35:12;4.10;;;3.22;;
52480;SDS011;38393;52.404;13.532;2022-07-22T11:37:38;3.40;;;3.00;;
52480;SDS011;38393;52.404;13.532;2022-07-22T11:40:05;4.10;;;3.63;;
52480;SDS011;38393;52.404;13.532;2022-07-22T11:42:31;4.28;;;3.28;;
52480;SDS011;38393;52.404;13.532;2022-07-22T11:44:57;3.78;;;3.30;;
52480;SDS011;38393;52.404;13.532;2022-07-22T11:47:23;4.63;;;3.90;;
52480;SDS011;38393;52.404;13.532;2022-07-22T11:49:49;5.28;;;3.72;;
52480;SDS011;38393;52.404;13.532;2022-07-22T11:52:15;4.65;;;3.58;;
52480;SDS011;38393;52.404;13.532;2022-07-22T11:54:42;4.25;;;3.85;;
52480;SDS011;38393;52.404;13.532;2022-07-22T11:57:08;4.20;;;3.80;;
52480;SDS011;38393;52.404;13.532;2022-07-22T11:59:34;5.35;;;3.88;;
52480;SDS011;38393;52.404;13.532;2022-07-22T12:02:01;4.43;;;3.75;;
52480;SDS011;38393;52.404;13.532;2022-07-22T12:04:27;4.93;;;3.70;;
52480;SDS011;38393;52.404;13.532;2022-07-22T12:06:54;5.05;;;3.83;;
52480;SDS011;38393;52.404;13.532;2022-07-22T12:09:21;6.20;;;4.00;;
52480;SDS011;38393;52.404;13.532;2022-07-22T12:11:50;5.38;;;4.20;;
52480;SDS011;38393;52.404;13.532;2022-07-22T12:14:17;5.05;;;4.15;;
52480;SDS011;38393;52.404;13.532;2022-07-22T12:16:47;5.18;;;4.40;;
52480;SDS011;38393;52.404;13.532;2022-07-22T12:19:18;4.97;;;4.13;;
52480;SDS011;38393;52.404;13.532;2022-07-22T12:21:52;4.68;;;3.97;;
52480;SDS011;38393;52.404;13.532;2022-07-22T12:24:25;4.53;;;3.80;;
52480;SDS011;38393;52.404;13.532;2022-07-22T12:26:52;4.53;;;4.10;;
52480;SDS011;38393;52.404;13.532;2022-07-22T12:29:22;5.15;;;3.85;;
52480;SDS011;38393;52.404;13.532;2022-07-22T12:31:59;5.95;;;3.55;;
52480;SDS011;38393;52.404;13.532;2022-07-22T12:36:57;6.03;;;3.50;;
52480;SDS011;38393;52.404;13.532;2022-07-22T12:39:23;4.25;;;3.47;;
52480;SDS011;38393;52.404;13.532;2022-07-22T12:41:50;3.80;;;3.40;;
52480;SDS011;38393;52.404;13.532;2022-07-22T12:44:17;4.40;;;3.70;;
52480;SDS011;38393;52.404;13.532;2022-07-22T12:46:44;3.63;;;3.33;;
52480;SDS011;38393;52.404;13.532;2022-07-22T12:49:10;6.60;;;3.42;;
52480;SDS011;38393;52.404;13.532;2022-07-22T12:51:36;3.90;;;3.10;;
52480;SDS011;38393;52.404;13.532;2022-07-22T12:54:02;5.30;;;3.30;;
52480;SDS011;38393;52.404;13.532;2022-07-22T12:56:28;3.58;;;3.10;;
52480;SDS011;38393;52.404;13.532;2022-07-22T12:58:54;3.33;;;3.00;;
52480;SDS011;38393;52.404;13.532;2022-07-22T13:01:20;3.25;;;2.95;;
52480;SDS011;38393;52.404;13.532;2022-07-22T13:03:46;3.20;;;2.90;;
52480;SDS011;38393;52.404;13.532;2022-07-22T13:06:12;5.22;;;2.83;;
52480;SDS011;38393;52.404;13.532;2022-07-22T13:08:38;2.58;;;2.33;;
52480;SDS011;38393;52.404;13.532;2022-07-22T13:11:04;3.35;;;2.35;;
52480;SDS011;38393;52.404;13.532;2022-07-22T13:13:30;2.80;;;2.58;;
52480;SDS011;38393;52.404;13.532;2022-07-22T13:15:56;3.95;;;2.53;;
52480;SDS011;38393;52.404;13.532;2022-07-22T13:18:22;2.55;;;2.35;;
52480;SDS011;38393;52.404;13.532;2022-07-22T13:20:48;2.90;;;2.60;;
52480;SDS011;38393;52.404;13.532;2022-07-22T13:23:14;3.25;;;2.75;;
52480;SDS011;38393;52.404;13.532;2022-07-22T13:25:40;3.70;;;2.10;;
52480;SDS011;38393;52.404;13.532;2022-07-22T13:28:06;2.50;;;2.30;;
52480;SDS011;38393;52.404;13.532;2022-07-22T13:30:32;2.42;;;2.22;;
52480;SDS011;38393;52.404;13.532;2022-07-22T13:32:58;2.67;;;2.47;;
52480;SDS011;38393;52.404;13.532;2022-07-22T13:35:23;3.88;;;2.75;;
52480;SDS011;38393;52.404;13.532;2022-07-22T13:37:49;2.95;;;2.53;;
52480;SDS011;38393;52.404;13.532;2022-07-22T13:40:16;4.75;;;2.60;;
52480;SDS011;38393;52.404;13.532;2022-07-22T13:42:42;3.67;;;2.42;;
52480;SDS011;38393;52.404;13.532;2022-07-22T13:45:08;2.92;;;2.45;;
52480;SDS011;38393;52.404;13.532;2022-07-22T13:47:36;4.60;;;2.67;;
52480;SDS011;38393;52.404;13.532;2022-07-22T13:50:02;3.20;;;2.90;;
52480;SDS011;38393;52.404;13.532;2022-07-22T13:52:28;3.67;;;2.70;;
52480;SDS011;38393;52.404;13.532;2022-07-22T13:54:54;3.17;;;2.53;;
52480;SDS011;38393;52.404;13.532;2022-07-22T13:57:20;3.85;;;2.75;;
52480;SDS011;38393;52.404;13.532;2022-07-22T13:59:46;4.07;;;2.50;;
52480;SDS011;38393;52.404;13.532;2022-07-22T14:02:12;2.60;;;2.40;;
52480;SDS011;38393;52.404;13.532;2022-07-22T14:04:38;2.63;;;2.40;;
52480;SDS011;38393;52.404;13.532;2022-07-22T14:07:04;2.58;;;2.13;;
52480;SDS011;38393;52.404;13.532;2022-07-22T14:09:29;2.17;;;1.98;;
52480;SDS011;38393;52.404;13.532;2022-07-22T14:11:55;2.70;;;2.20;;
52480;SDS011;38393;52.404;13.532;2022-07-22T14:14:21;2.33;;;2.10;;
52480;SDS011;38393;52.404;13.532;2022-07-22T14:16:47;2.33;;;2.13;;
52480;SDS011;38393;52.404;13.532;2022-07-22T14:19:14;2.40;;;2.15;;
52480;SDS011;38393;52.404;13.532;2022-07-22T14:21:41;2.20;;;2.00;;
52480;SDS011;38393;52.404;13.532;2022-07-22T14:24:08;6.20;;;2.35;;
52480;SDS011;38393;52.404;13.532;2022-07-22T14:26:35;5.82;;;2.13;;
52480;SDS011;38393;52.404;13.532;2022-07-22T14:29:01;2.40;;;2.20;;
52480;SDS011;38393;52.404;13.532;2022-07-22T14:31:27;2.42;;;2.05;;
52480;SDS011;38393;52.404;13.532;2022-07-22T14:33:54;2.42;;;2.00;;
52480;SDS011;38393;52.404;13.532;2022-07-22T14:36:20;3.45;;;2.00;;
52480;SDS011;38393;52.404;13.532;2022-07-22T14:38:46;2.00;;;1.80;;
52480;SDS011;38393;52.404;13.532;2022-07-22T14:41:14;2.80;;;1.95;;